sensor_id;sensor_type;location;lat;lon;timestamp;P1;durP1;ratioP1;P2;durP2;ratioP2
46158;SDS011;31888;44.512;26.104;2022-07-06T00:00:55;14.02;;;5.97;;
46158;SDS011;31888;44.512;26.104;2022-07-06T00:03:00;10.55;;;6.35;;
46158;SDS011;31888;44.512;26.104;2022-07-06T00:05:05;15.80;;;6.90;;
46158;SDS011;31888;44.512;26.104;2022-07-06T00:07:12;13.65;;;7.05;;
46158;SDS011;31888;44.512;26.104;2022-07-06T00:09:17;11.27;;;7.22;;
46158;SDS011;31888;44.512;26.104;2022-07-06T00:11:21;12.10;;;5.90;;
46158;SDS011;31888;44.512;26.104;2022-07-06T00:13:26;15.65;;;5.90;;
46158;SDS011;31888;44.512;26.104;2022-07-06T00:15:31;12.63;;;6.03;;
46158;SDS011;31888;44.512;26.104;2022-07-06T00:17:37;14.82;;;6.40;;
46158;SDS011;31888;44.512;26.104;2022-07-06T00:19:42;11.55;;;5.97;;
46158;SDS011;31888;44.512;26.104;2022-07-06T00:21:46;18.42;;;6.20;;
46158;SDS011;31888;44.512;26.104;2022-07-06T00:23:52;14.55;;;7.13;;
46158;SDS011;31888;44.512;26.104;2022-07-06T00:25:56;10.50;;;5.90;;
46158;SDS011;31888;44.512;26.104;2022-07-06T00:28:01;10.00;;;6.60;;
46158;SDS011;31888;44.512;26.104;2022-07-06T00:30:07;9.65;;;5.82;;
46158;SDS011;31888;44.512;26.104;2022-07-06T00:32:12;12.65;;;6.55;;
46158;SDS011;31888;44.512;26.104;2022-07-06T00:34:20;13.20;;;6.35;;
46158;SDS011;31888;44.512;26.104;2022-07-06T00:36:24;11.50;;;5.90;;
46158;SDS011;31888;44.512;26.104;2022-07-06T00:38:36;16.25;;;6.35;;
46158;SDS011;31888;44.512;26.104;2022-07-06T00:40:41;12.32;;;6.88;;
46158;SDS011;31888;44.512;26.104;2022-07-06T00:42:48;14.00;;;6.40;;
46158;SDS011;31888;44.512;26.104;2022-07-06T00:44:52;14.98;;;6.43;;
46158;SDS011;31888;44.512;26.104;2022-07-06T00:46:57;10.15;;;6.15;;
46158;SDS011;31888;44.512;26.104;2022-07-06T00:49:01;9.10;;;5.88;;
46158;SDS011;31888;44.512;26.104;2022-07-06T00:51:08;10.60;;;6.15;;
46158;SDS011;31888;44.512;26.104;2022-07-06T00:53:13;8.68;;;6.28;;
46158;SDS011;31888;44.512;26.104;2022-07-06T00:55:19;17.10;;;6.45;;
46158;SDS011;31888;44.512;26.104;2022-07-06T00:57:27;10.90;;;6.05;;
46158;SDS011;31888;44.512;26.104;2022-07-06T00:59:32;11.63;;;6.50;;
46158;SDS011;31888;44.512;26.104;2022-07-06T01:01:36;9.48;;;5.95;;
46158;SDS011;31888;44.512;26.104;2022-07-06T01:03:41;13.50;;;5.85;;
46158;SDS011;31888;44.512;26.104;2022-07-06T01:05:46;16.08;;;6.18;;
46158;SDS011;31888;44.512;26.104;2022-07-06T01:07:52;8.63;;;5.63;;
46158;SDS011;31888;44.512;26.104;2022-07-06T01:09:57;10.77;;;6.28;;
46158;SDS011;31888;44.512;26.104;2022-07-06T01:12:02;12.50;;;6.15;;
46158;SDS011;31888;44.512;26.104;2022-07-06T01:14:08;10.57;;;5.97;;
46158;SDS011;31888;44.512;26.104;2022-07-06T01:16:13;9.05;;;5.50;;
46158;SDS011;31888;44.512;26.104;2022-07-06T01:18:18;16.08;;;6.35;;
46158;SDS011;31888;44.512;26.104;2022-07-06T01:20:25;7.50;;;5.75;;
46158;SDS011;31888;44.512;26.104;2022-07-06T01:22:30;12.48;;;5.82;;
46158;SDS011;31888;44.512;26.104;2022-07-06T01:24:35;10.15;;;5.72;;
46158;SDS011;31888;44.512;26.104;2022-07-06T01:26:41;10.65;;;6.38;;
46158;SDS011;31888;44.512;26.104;2022-07-06T01:28:46;10.00;;;6.13;;
46158;SDS011;31888;44.512;26.104;2022-07-06T01:30:54;10.13;;;6.13;;
46158;SDS011;31888;44.512;26.104;2022-07-06T01:32:59;12.38;;;6.38;;
46158;SDS011;31888;44.512;26.104;2022-07-06T01:35:05;10.25;;;6.07;;
46158;SDS011;31888;44.512;26.104;2022-07-06T01:37:11;9.60;;;5.25;;
46158;SDS011;31888;44.512;26.104;2022-07-06T01:39:16;7.50;;;5.75;;
46158;SDS011;31888;44.512;26.104;2022-07-06T01:41:20;15.57;;;6.28;;
46158;SDS011;31888;44.512;26.104;2022-07-06T01:43:25;10.57;;;6.97;;
46158;SDS011;31888;44.512;26.104;2022-07-06T01:45:30;12.93;;;6.63;;
46158;SDS011;31888;44.512;26.104;2022-07-06T01:47:36;9.07;;;6.40;;
46158;SDS011;31888;44.512;26.104;2022-07-06T01:49:42;9.40;;;6.63;;
46158;SDS011;31888;44.512;26.104;2022-07-06T01:51:46;14.15;;;6.32;;
46158;SDS011;31888;44.512;26.104;2022-07-06T01:53:52;17.05;;;6.80;;
46158;SDS011;31888;44.512;26.104;2022-07-06T01:55:57;8.75;;;6.50;;
46158;SDS011;31888;44.512;26.104;2022-07-06T01:58:02;12.35;;;6.88;;
46158;SDS011;31888;44.512;26.104;2022-07-06T02:00:07;14.10;;;6.95;;
46158;SDS011;31888;44.512;26.104;2022-07-06T02:02:16;16.92;;;7.50;;
46158;SDS011;31888;44.512;26.104;2022-07-06T02:04:21;11.93;;;6.78;;
46158;SDS011;31888;44.512;26.104;2022-07-06T02:06:25;11.38;;;6.15;;
46158;SDS011;31888;44.512;26.104;2022-07-06T02:08:30;10.20;;;6.65;;
46158;SDS011;31888;44.512;26.104;2022-07-06T02:10:36;12.05;;;6.32;;
46158;SDS011;31888;44.512;26.104;2022-07-06T02:12:41;10.95;;;7.03;;
46158;SDS011;31888;44.512;26.104;2022-07-06T02:14:46;10.32;;;6.72;;
46158;SDS011;31888;44.512;26.104;2022-07-06T02:16:51;11.10;;;6.50;;
46158;SDS011;31888;44.512;26.104;2022-07-06T02:18:55;14.38;;;6.70;;
46158;SDS011;31888;44.512;26.104;2022-07-06T02:21:03;15.70;;;7.53;;
46158;SDS011;31888;44.512;26.104;2022-07-06T02:23:08;22.02;;;7.15;;
46158;SDS011;31888;44.512;26.104;2022-07-06T02:25:14;9.40;;;6.20;;
46158;SDS011;31888;44.512;26.104;2022-07-06T02:27:20;12.13;;;7.25;;
46158;SDS011;31888;44.512;26.104;2022-07-06T02:29:25;14.43;;;7.95;;
46158;SDS011;31888;44.512;26.104;2022-07-06T02:31:30;11.10;;;7.10;;
46158;SDS011;31888;44.512;26.104;2022-07-06T02:33:34;17.48;;;7.65;;
46158;SDS011;31888;44.512;26.104;2022-07-06T02:35:39;10.43;;;7.53;;
46158;SDS011;31888;44.512;26.104;2022-07-06T02:37:48;14.25;;;7.55;;
46158;SDS011;31888;44.512;26.104;2022-07-06T02:39:52;12.18;;;7.15;;
46158;SDS011;31888;44.512;26.104;2022-07-06T02:41:58;13.32;;;7.65;;
46158;SDS011;31888;44.512;26.104;2022-07-06T02:44:06;13.77;;;7.22;;
46158;SDS011;31888;44.512;26.104;2022-07-06T02:46:14;12.30;;;7.68;;
46158;SDS011;31888;44.512;26.104;2022-07-06T02:48:20;13.70;;;7.40;;
46158;SDS011;31888;44.512;26.104;2022-07-06T02:50:27;10.15;;;7.13;;
46158;SDS011;31888;44.512;26.104;2022-07-06T02:52:32;16.00;;;7.38;;
46158;SDS011;31888;44.512;26.104;2022-07-06T02:54:44;10.35;;;6.80;;
46158;SDS011;31888;44.512;26.104;2022-07-06T02:56:49;12.40;;;7.43;;
46158;SDS011;31888;44.512;26.104;2022-07-06T02:58:55;16.33;;;7.60;;
46158;SDS011;31888;44.512;26.104;2022-07-06T03:01:01;14.57;;;7.90;;
46158;SDS011;31888;44.512;26.104;2022-07-06T03:03:06;13.63;;;8.27;;
46158;SDS011;31888;44.512;26.104;2022-07-06T03:05:13;13.70;;;7.78;;
46158;SDS011;31888;44.512;26.104;2022-07-06T03:07:18;13.32;;;8.05;;
46158;SDS011;31888;44.512;26.104;2022-07-06T03:09:24;11.85;;;8.05;;
46158;SDS011;31888;44.512;26.104;2022-07-06T03:11:29;12.50;;;8.00;;
46158;SDS011;31888;44.512;26.104;2022-07-06T03:13:34;15.80;;;8.30;;
46158;SDS011;31888;44.512;26.104;2022-07-06T03:15:39;13.90;;;8.23;;
46158;SDS011;31888;44.512;26.104;2022-07-06T03:17:46;10.90;;;7.55;;
46158;SDS011;31888;44.512;26.104;2022-07-06T03:19:51;14.00;;;8.18;;
46158;SDS011;31888;44.512;26.104;2022-07-06T03:21:55;13.07;;;8.45;;
46158;SDS011;31888;44.512;26.104;2022-07-06T03:24:01;11.95;;;7.15;;
46158;SDS011;31888;44.512;26.104;2022-07-06T03:26:05;13.57;;;8.82;;
46158;SDS011;31888;44.512;26.104;2022-07-06T03:28:12;14.60;;;7.93;;
46158;SDS011;31888;44.512;26.104;2022-07-06T03:30:16;11.27;;;7.55;;
46158;SDS011;31888;44.512;26.104;2022-07-06T03:32:28;15.80;;;7.82;;
46158;SDS011;31888;44.512;26.104;2022-07-06T03:34:37;18.27;;;9.20;;
46158;SDS011;31888;44.512;26.104;2022-07-06T03:36:42;13.70;;;8.60;;
46158;SDS011;31888;44.512;26.104;2022-07-06T03:38:46;12.80;;;8.32;;
46158;SDS011;31888;44.512;26.104;2022-07-06T03:40:52;20.35;;;9.23;;
46158;SDS011;31888;44.512;26.104;2022-07-06T03:42:56;13.77;;;8.00;;
46158;SDS011;31888;44.512;26.104;2022-07-06T03:45:05;20.60;;;8.80;;
46158;SDS011;31888;44.512;26.104;2022-07-06T03:47:10;24.38;;;8.50;;
46158;SDS011;31888;44.512;26.104;2022-07-06T03:49:15;12.65;;;8.38;;
46158;SDS011;31888;44.512;26.104;2022-07-06T03:51:21;21.38;;;9.05;;
46158;SDS011;31888;44.512;26.104;2022-07-06T03:53:27;15.18;;;8.02;;
46158;SDS011;31888;44.512;26.104;2022-07-06T03:55:32;14.25;;;7.97;;
46158;SDS011;31888;44.512;26.104;2022-07-06T03:57:41;15.00;;;8.13;;
46158;SDS011;31888;44.512;26.104;2022-07-06T03:59:49;15.82;;;8.30;;
46158;SDS011;31888;44.512;26.104;2022-07-06T04:01:56;14.18;;;8.20;;
46158;SDS011;31888;44.512;26.104;2022-07-06T04:04:01;15.77;;;8.25;;
46158;SDS011;31888;44.512;26.104;2022-07-06T04:06:08;17.98;;;8.90;;
46158;SDS011;31888;44.512;26.104;2022-07-06T04:08:14;13.10;;;8.02;;
46158;SDS011;31888;44.512;26.104;2022-07-06T04:10:25;14.90;;;8.40;;
46158;SDS011;31888;44.512;26.104;2022-07-06T04:12:31;20.27;;;8.32;;
46158;SDS011;31888;44.512;26.104;2022-07-06T04:14:43;11.60;;;7.57;;
46158;SDS011;31888;44.512;26.104;2022-07-06T04:16:47;16.65;;;7.72;;
46158;SDS011;31888;44.512;26.104;2022-07-06T04:22:00;15.20;;;8.18;;
46158;SDS011;31888;44.512;26.104;2022-07-06T04:24:13;17.08;;;8.05;;
46158;SDS011;31888;44.512;26.104;2022-07-06T04:26:18;15.68;;;7.95;;
46158;SDS011;31888;44.512;26.104;2022-07-06T04:28:25;18.40;;;7.85;;
46158;SDS011;31888;44.512;26.104;2022-07-06T04:30:31;21.38;;;8.93;;
46158;SDS011;31888;44.512;26.104;2022-07-06T04:32:37;16.45;;;8.60;;
46158;SDS011;31888;44.512;26.104;2022-07-06T04:34:42;15.68;;;8.48;;
46158;SDS011;31888;44.512;26.104;2022-07-06T04:36:47;16.42;;;8.18;;
46158;SDS011;31888;44.512;26.104;2022-07-06T04:38:52;19.65;;;7.78;;
46158;SDS011;31888;44.512;26.104;2022-07-06T04:40:58;16.70;;;8.45;;
46158;SDS011;31888;44.512;26.104;2022-07-06T04:43:03;19.38;;;8.73;;
46158;SDS011;31888;44.512;26.104;2022-07-06T04:45:10;20.80;;;8.88;;
46158;SDS011;31888;44.512;26.104;2022-07-06T04:47:15;23.13;;;8.18;;
46158;SDS011;31888;44.512;26.104;2022-07-06T04:49:20;19.23;;;8.80;;
46158;SDS011;31888;44.512;26.104;2022-07-06T04:51:25;16.88;;;8.05;;
46158;SDS011;31888;44.512;26.104;2022-07-06T04:53:30;19.38;;;8.85;;
46158;SDS011;31888;44.512;26.104;2022-07-06T04:55:34;19.77;;;8.45;;
46158;SDS011;31888;44.512;26.104;2022-07-06T04:57:40;19.48;;;8.85;;
46158;SDS011;31888;44.512;26.104;2022-07-06T04:59:47;18.52;;;8.68;;
46158;SDS011;31888;44.512;26.104;2022-07-06T05:01:52;15.40;;;8.88;;
46158;SDS011;31888;44.512;26.104;2022-07-06T05:03:57;13.95;;;8.10;;
46158;SDS011;31888;44.512;26.104;2022-07-06T05:06:06;15.63;;;8.37;;
46158;SDS011;31888;44.512;26.104;2022-07-06T05:08:11;18.48;;;9.35;;
46158;SDS011;31888;44.512;26.104;2022-07-06T05:10:16;14.45;;;8.25;;
46158;SDS011;31888;44.512;26.104;2022-07-06T05:12:24;18.00;;;9.35;;
46158;SDS011;31888;44.512;26.104;2022-07-06T05:14:30;16.75;;;8.70;;
46158;SDS011;31888;44.512;26.104;2022-07-06T05:16:35;14.85;;;8.90;;
46158;SDS011;31888;44.512;26.104;2022-07-06T05:18:41;22.10;;;8.77;;
46158;SDS011;31888;44.512;26.104;2022-07-06T05:20:46;17.88;;;8.95;;
46158;SDS011;31888;44.512;26.104;2022-07-06T05:22:51;22.02;;;8.80;;
46158;SDS011;31888;44.512;26.104;2022-07-06T05:25:00;15.02;;;8.02;;
46158;SDS011;31888;44.512;26.104;2022-07-06T05:27:05;14.88;;;9.07;;
46158;SDS011;31888;44.512;26.104;2022-07-06T05:29:10;16.73;;;8.73;;
46158;SDS011;31888;44.512;26.104;2022-07-06T05:31:16;11.07;;;8.40;;
46158;SDS011;31888;44.512;26.104;2022-07-06T05:33:20;17.58;;;8.32;;
46158;SDS011;31888;44.512;26.104;2022-07-06T05:35:25;17.48;;;9.00;;
46158;SDS011;31888;44.512;26.104;2022-07-06T05:37:50;18.88;;;8.93;;
46158;SDS011;31888;44.512;26.104;2022-07-06T05:39:54;15.63;;;9.02;;
46158;SDS011;31888;44.512;26.104;2022-07-06T05:41:59;16.48;;;8.95;;
46158;SDS011;31888;44.512;26.104;2022-07-06T05:44:06;14.18;;;7.80;;
46158;SDS011;31888;44.512;26.104;2022-07-06T05:46:11;15.23;;;8.98;;
46158;SDS011;31888;44.512;26.104;2022-07-06T05:48:18;14.27;;;8.27;;
46158;SDS011;31888;44.512;26.104;2022-07-06T05:50:40;11.80;;;8.98;;
46158;SDS011;31888;44.512;26.104;2022-07-06T05:52:44;15.48;;;8.18;;
46158;SDS011;31888;44.512;26.104;2022-07-06T05:54:59;15.85;;;7.65;;
46158;SDS011;31888;44.512;26.104;2022-07-06T05:57:04;20.05;;;10.00;;
46158;SDS011;31888;44.512;26.104;2022-07-06T05:59:09;31.77;;;15.93;;
46158;SDS011;31888;44.512;26.104;2022-07-06T06:01:14;12.93;;;8.18;;
46158;SDS011;31888;44.512;26.104;2022-07-06T06:03:26;19.48;;;11.18;;
46158;SDS011;31888;44.512;26.104;2022-07-06T06:05:31;13.07;;;8.88;;
46158;SDS011;31888;44.512;26.104;2022-07-06T06:07:40;17.67;;;8.35;;
46158;SDS011;31888;44.512;26.104;2022-07-06T06:09:45;15.88;;;7.55;;
46158;SDS011;31888;44.512;26.104;2022-07-06T06:11:50;10.85;;;8.48;;
46158;SDS011;31888;44.512;26.104;2022-07-06T06:13:55;20.95;;;8.32;;
46158;SDS011;31888;44.512;26.104;2022-07-06T06:16:00;17.60;;;9.25;;
46158;SDS011;31888;44.512;26.104;2022-07-06T06:18:04;19.50;;;9.45;;
46158;SDS011;31888;44.512;26.104;2022-07-06T06:20:11;18.45;;;8.50;;
46158;SDS011;31888;44.512;26.104;2022-07-06T06:22:17;19.10;;;9.32;;
46158;SDS011;31888;44.512;26.104;2022-07-06T06:24:21;17.40;;;9.30;;
46158;SDS011;31888;44.512;26.104;2022-07-06T06:26:29;22.95;;;9.60;;
46158;SDS011;31888;44.512;26.104;2022-07-06T06:28:33;22.10;;;9.43;;
46158;SDS011;31888;44.512;26.104;2022-07-06T06:30:39;17.77;;;8.60;;
46158;SDS011;31888;44.512;26.104;2022-07-06T06:32:43;20.25;;;9.60;;
46158;SDS011;31888;44.512;26.104;2022-07-06T06:34:48;18.58;;;9.93;;
46158;SDS011;31888;44.512;26.104;2022-07-06T06:36:56;19.42;;;9.13;;
46158;SDS011;31888;44.512;26.104;2022-07-06T06:39:00;17.90;;;9.00;;
46158;SDS011;31888;44.512;26.104;2022-07-06T06:41:05;16.52;;;9.32;;
46158;SDS011;31888;44.512;26.104;2022-07-06T06:43:10;17.23;;;8.13;;
46158;SDS011;31888;44.512;26.104;2022-07-06T06:45:36;15.70;;;8.70;;
46158;SDS011;31888;44.512;26.104;2022-07-06T06:47:41;15.73;;;9.43;;
46158;SDS011;31888;44.512;26.104;2022-07-06T06:49:46;17.70;;;9.90;;
46158;SDS011;31888;44.512;26.104;2022-07-06T06:51:51;21.67;;;10.38;;
46158;SDS011;31888;44.512;26.104;2022-07-06T06:54:17;18.45;;;9.85;;
46158;SDS011;31888;44.512;26.104;2022-07-06T06:56:25;22.08;;;11.07;;
46158;SDS011;31888;44.512;26.104;2022-07-06T06:58:29;22.88;;;10.48;;
46158;SDS011;31888;44.512;26.104;2022-07-06T07:00:54;22.73;;;10.52;;
46158;SDS011;31888;44.512;26.104;2022-07-06T07:03:05;25.67;;;11.02;;
46158;SDS011;31888;44.512;26.104;2022-07-06T07:05:10;23.02;;;11.05;;
46158;SDS011;31888;44.512;26.104;2022-07-06T07:07:16;34.22;;;17.35;;
46158;SDS011;31888;44.512;26.104;2022-07-06T07:09:28;25.95;;;10.15;;
46158;SDS011;31888;44.512;26.104;2022-07-06T07:11:34;17.63;;;9.40;;
46158;SDS011;31888;44.512;26.104;2022-07-06T07:13:42;19.92;;;9.88;;
46158;SDS011;31888;44.512;26.104;2022-07-06T07:15:47;14.80;;;9.27;;
46158;SDS011;31888;44.512;26.104;2022-07-06T07:17:59;25.95;;;11.80;;
46158;SDS011;31888;44.512;26.104;2022-07-06T07:20:37;64.53;;;35.92;;
46158;SDS011;31888;44.512;26.104;2022-07-06T07:22:57;22.17;;;10.20;;
46158;SDS011;31888;44.512;26.104;2022-07-06T07:25:20;21.25;;;10.25;;
46158;SDS011;31888;44.512;26.104;2022-07-06T07:27:52;17.77;;;9.68;;
46158;SDS011;31888;44.512;26.104;2022-07-06T07:30:02;22.73;;;9.10;;
46158;SDS011;31888;44.512;26.104;2022-07-06T07:32:40;28.77;;;10.65;;
46158;SDS011;31888;44.512;26.104;2022-07-06T07:35:27;17.92;;;9.32;;
46158;SDS011;31888;44.512;26.104;2022-07-06T07:37:46;23.10;;;8.77;;
46158;SDS011;31888;44.512;26.104;2022-07-06T07:39:58;18.17;;;9.18;;
46158;SDS011;31888;44.512;26.104;2022-07-06T07:42:13;24.42;;;10.25;;
46158;SDS011;31888;44.512;26.104;2022-07-06T07:44:20;16.77;;;8.38;;
46158;SDS011;31888;44.512;26.104;2022-07-06T07:46:29;19.42;;;9.40;;
46158;SDS011;31888;44.512;26.104;2022-07-06T07:48:45;21.20;;;9.43;;
46158;SDS011;31888;44.512;26.104;2022-07-06T07:50:49;22.92;;;9.70;;
46158;SDS011;31888;44.512;26.104;2022-07-06T07:52:57;22.08;;;9.20;;
46158;SDS011;31888;44.512;26.104;2022-07-06T07:55:03;15.38;;;9.75;;
46158;SDS011;31888;44.512;26.104;2022-07-06T07:57:32;15.23;;;9.40;;
46158;SDS011;31888;44.512;26.104;2022-07-06T07:59:37;19.40;;;9.82;;
46158;SDS011;31888;44.512;26.104;2022-07-06T08:01:52;14.57;;;8.95;;
46158;SDS011;31888;44.512;26.104;2022-07-06T08:04:00;21.73;;;9.82;;
46158;SDS011;31888;44.512;26.104;2022-07-06T08:06:08;17.98;;;8.50;;
46158;SDS011;31888;44.512;26.104;2022-07-06T08:08:14;13.70;;;9.27;;
46158;SDS011;31888;44.512;26.104;2022-07-06T08:10:19;18.73;;;8.68;;
46158;SDS011;31888;44.512;26.104;2022-07-06T08:12:24;18.00;;;7.97;;
46158;SDS011;31888;44.512;26.104;2022-07-06T08:14:31;18.83;;;9.15;;
46158;SDS011;31888;44.512;26.104;2022-07-06T08:16:36;17.15;;;8.48;;
46158;SDS011;31888;44.512;26.104;2022-07-06T08:18:41;14.27;;;8.80;;
46158;SDS011;31888;44.512;26.104;2022-07-06T08:20:49;11.45;;;8.18;;
46158;SDS011;31888;44.512;26.104;2022-07-06T08:23:13;12.98;;;8.43;;
46158;SDS011;31888;44.512;26.104;2022-07-06T08:25:18;17.45;;;8.50;;
46158;SDS011;31888;44.512;26.104;2022-07-06T08:27:23;18.48;;;9.13;;
46158;SDS011;31888;44.512;26.104;2022-07-06T08:29:28;14.02;;;7.45;;
46158;SDS011;31888;44.512;26.104;2022-07-06T08:31:34;16.90;;;8.48;;
46158;SDS011;31888;44.512;26.104;2022-07-06T08:33:59;15.57;;;9.13;;
46158;SDS011;31888;44.512;26.104;2022-07-06T08:36:04;18.40;;;9.63;;
46158;SDS011;31888;44.512;26.104;2022-07-06T08:38:09;17.35;;;8.80;;
46158;SDS011;31888;44.512;26.104;2022-07-06T08:40:15;12.07;;;8.65;;
46158;SDS011;31888;44.512;26.104;2022-07-06T08:42:20;16.33;;;8.30;;
46158;SDS011;31888;44.512;26.104;2022-07-06T08:44:27;12.25;;;8.25;;
46158;SDS011;31888;44.512;26.104;2022-07-06T08:46:32;17.83;;;8.73;;
46158;SDS011;31888;44.512;26.104;2022-07-06T08:48:41;17.15;;;8.80;;
46158;SDS011;31888;44.512;26.104;2022-07-06T08:50:46;16.13;;;8.35;;
46158;SDS011;31888;44.512;26.104;2022-07-06T08:52:50;19.60;;;8.93;;
46158;SDS011;31888;44.512;26.104;2022-07-06T08:54:55;17.42;;;8.77;;
46158;SDS011;31888;44.512;26.104;2022-07-06T08:57:02;18.73;;;9.15;;
46158;SDS011;31888;44.512;26.104;2022-07-06T08:59:07;14.80;;;9.27;;
46158;SDS011;31888;44.512;26.104;2022-07-06T09:01:13;12.73;;;9.43;;
46158;SDS011;31888;44.512;26.104;2022-07-06T09:03:20;14.25;;;8.80;;
46158;SDS011;31888;44.512;26.104;2022-07-06T09:05:25;13.25;;;8.57;;
46158;SDS011;31888;44.512;26.104;2022-07-06T09:07:32;14.60;;;8.93;;
46158;SDS011;31888;44.512;26.104;2022-07-06T09:09:57;15.52;;;9.13;;
46158;SDS011;31888;44.512;26.104;2022-07-06T09:12:04;14.27;;;9.48;;
46158;SDS011;31888;44.512;26.104;2022-07-06T09:14:14;18.88;;;9.18;;
46158;SDS011;31888;44.512;26.104;2022-07-06T09:16:25;16.55;;;9.93;;
46158;SDS011;31888;44.512;26.104;2022-07-06T09:18:43;18.73;;;8.90;;
46158;SDS011;31888;44.512;26.104;2022-07-06T09:20:48;16.83;;;9.35;;
46158;SDS011;31888;44.512;26.104;2022-07-06T09:22:56;11.02;;;8.82;;
46158;SDS011;31888;44.512;26.104;2022-07-06T09:25:03;16.30;;;9.48;;
46158;SDS011;31888;44.512;26.104;2022-07-06T09:27:14;12.50;;;9.30;;
46158;SDS011;31888;44.512;26.104;2022-07-06T09:29:24;18.20;;;9.30;;
46158;SDS011;31888;44.512;26.104;2022-07-06T09:31:30;14.15;;;10.15;;
46158;SDS011;31888;44.512;26.104;2022-07-06T09:33:36;18.42;;;9.95;;
46158;SDS011;31888;44.512;26.104;2022-07-06T09:35:42;16.65;;;10.15;;
46158;SDS011;31888;44.512;26.104;2022-07-06T09:37:48;17.70;;;9.70;;
46158;SDS011;31888;44.512;26.104;2022-07-06T09:40:15;14.57;;;9.77;;
46158;SDS011;31888;44.512;26.104;2022-07-06T09:42:24;16.65;;;9.70;;
46158;SDS011;31888;44.512;26.104;2022-07-06T09:44:31;17.38;;;10.38;;
46158;SDS011;31888;44.512;26.104;2022-07-06T09:46:37;18.08;;;10.43;;
46158;SDS011;31888;44.512;26.104;2022-07-06T09:48:44;21.35;;;11.05;;
46158;SDS011;31888;44.512;26.104;2022-07-06T09:50:51;24.85;;;11.73;;
46158;SDS011;31888;44.512;26.104;2022-07-06T09:52:57;16.85;;;12.35;;
46158;SDS011;31888;44.512;26.104;2022-07-06T09:55:05;19.98;;;12.68;;
46158;SDS011;31888;44.512;26.104;2022-07-06T09:57:18;18.60;;;12.20;;
46158;SDS011;31888;44.512;26.104;2022-07-06T09:59:28;14.18;;;11.40;;
46158;SDS011;31888;44.512;26.104;2022-07-06T10:01:43;18.50;;;11.93;;
46158;SDS011;31888;44.512;26.104;2022-07-06T10:03:48;21.13;;;12.98;;
46158;SDS011;31888;44.512;26.104;2022-07-06T10:05:57;17.27;;;12.75;;
46158;SDS011;31888;44.512;26.104;2022-07-06T10:08:02;18.60;;;12.48;;
46158;SDS011;31888;44.512;26.104;2022-07-06T10:10:08;22.98;;;12.20;;
46158;SDS011;31888;44.512;26.104;2022-07-06T10:12:13;16.35;;;12.80;;
46158;SDS011;31888;44.512;26.104;2022-07-06T10:14:19;17.48;;;11.88;;
46158;SDS011;31888;44.512;26.104;2022-07-06T10:16:25;27.42;;;12.18;;
46158;SDS011;31888;44.512;26.104;2022-07-06T10:18:31;20.77;;;13.23;;
46158;SDS011;31888;44.512;26.104;2022-07-06T10:20:40;16.38;;;13.10;;
46158;SDS011;31888;44.512;26.104;2022-07-06T10:22:50;19.90;;;13.35;;
46158;SDS011;31888;44.512;26.104;2022-07-06T10:25:04;15.18;;;13.20;;
46158;SDS011;31888;44.512;26.104;2022-07-06T10:27:13;16.20;;;13.63;;
46158;SDS011;31888;44.512;26.104;2022-07-06T10:29:21;21.15;;;13.13;;
46158;SDS011;31888;44.512;26.104;2022-07-06T10:31:27;17.55;;;12.95;;
46158;SDS011;31888;44.512;26.104;2022-07-06T10:33:32;15.68;;;12.73;;
46158;SDS011;31888;44.512;26.104;2022-07-06T10:35:41;19.65;;;12.20;;
46158;SDS011;31888;44.512;26.104;2022-07-06T10:38:04;15.13;;;12.55;;
46158;SDS011;31888;44.512;26.104;2022-07-06T10:40:17;16.13;;;11.55;;
46158;SDS011;31888;44.512;26.104;2022-07-06T10:42:56;15.68;;;12.45;;
46158;SDS011;31888;44.512;26.104;2022-07-06T10:45:08;18.58;;;11.70;;
46158;SDS011;31888;44.512;26.104;2022-07-06T10:47:16;19.27;;;12.55;;
46158;SDS011;31888;44.512;26.104;2022-07-06T10:49:31;14.75;;;11.75;;
46158;SDS011;31888;44.512;26.104;2022-07-06T10:52:01;26.90;;;12.88;;
46158;SDS011;31888;44.512;26.104;2022-07-06T10:54:09;15.80;;;11.52;;
46158;SDS011;31888;44.512;26.104;2022-07-06T10:56:15;17.75;;;11.45;;
46158;SDS011;31888;44.512;26.104;2022-07-06T10:58:34;12.70;;;10.90;;
46158;SDS011;31888;44.512;26.104;2022-07-06T11:00:50;13.65;;;12.15;;
46158;SDS011;31888;44.512;26.104;2022-07-06T11:02:55;14.35;;;11.18;;
46158;SDS011;31888;44.512;26.104;2022-07-06T11:05:05;17.75;;;11.95;;
46158;SDS011;31888;44.512;26.104;2022-07-06T11:07:15;22.02;;;11.68;;
46158;SDS011;31888;44.512;26.104;2022-07-06T11:09:30;15.55;;;11.52;;
46158;SDS011;31888;44.512;26.104;2022-07-06T11:11:41;16.38;;;11.68;;
46158;SDS011;31888;44.512;26.104;2022-07-06T11:13:49;13.93;;;11.57;;
46158;SDS011;31888;44.512;26.104;2022-07-06T11:16:04;16.48;;;11.85;;
46158;SDS011;31888;44.512;26.104;2022-07-06T11:18:10;15.60;;;12.35;;
46158;SDS011;31888;44.512;26.104;2022-07-06T11:20:15;17.90;;;12.20;;
46158;SDS011;31888;44.512;26.104;2022-07-06T11:22:23;28.02;;;13.13;;
46158;SDS011;31888;44.512;26.104;2022-07-06T11:24:40;16.10;;;12.65;;
46158;SDS011;31888;44.512;26.104;2022-07-06T11:26:52;17.00;;;12.80;;
46158;SDS011;31888;44.512;26.104;2022-07-06T11:28:58;30.77;;;12.85;;
46158;SDS011;31888;44.512;26.104;2022-07-06T11:31:07;15.18;;;12.30;;
46158;SDS011;31888;44.512;26.104;2022-07-06T11:33:27;14.20;;;12.70;;
46158;SDS011;31888;44.512;26.104;2022-07-06T11:35:32;16.40;;;13.05;;
46158;SDS011;31888;44.512;26.104;2022-07-06T11:37:36;16.65;;;12.35;;
46158;SDS011;31888;44.512;26.104;2022-07-06T11:39:44;15.70;;;12.77;;
46158;SDS011;31888;44.512;26.104;2022-07-06T11:41:54;15.63;;;12.20;;
46158;SDS011;31888;44.512;26.104;2022-07-06T11:44:03;15.48;;;12.77;;
46158;SDS011;31888;44.512;26.104;2022-07-06T11:46:22;18.88;;;12.18;;
46158;SDS011;31888;44.512;26.104;2022-07-06T11:48:31;27.00;;;12.95;;
46158;SDS011;31888;44.512;26.104;2022-07-06T11:50:38;19.38;;;11.20;;
46158;SDS011;31888;44.512;26.104;2022-07-06T11:52:46;14.27;;;11.43;;
46158;SDS011;31888;44.512;26.104;2022-07-06T11:54:56;21.48;;;12.00;;
46158;SDS011;31888;44.512;26.104;2022-07-06T11:57:06;16.42;;;11.98;;
46158;SDS011;31888;44.512;26.104;2022-07-06T11:59:12;26.50;;;12.40;;
46158;SDS011;31888;44.512;26.104;2022-07-06T12:01:26;12.73;;;10.88;;
46158;SDS011;31888;44.512;26.104;2022-07-06T12:03:33;12.90;;;11.43;;
46158;SDS011;31888;44.512;26.104;2022-07-06T12:05:39;13.00;;;10.88;;
46158;SDS011;31888;44.512;26.104;2022-07-06T12:07:46;18.77;;;11.57;;
46158;SDS011;31888;44.512;26.104;2022-07-06T12:09:53;14.38;;;11.18;;
46158;SDS011;31888;44.512;26.104;2022-07-06T12:12:00;12.30;;;10.95;;
46158;SDS011;31888;44.512;26.104;2022-07-06T12:14:12;14.93;;;11.98;;
46158;SDS011;31888;44.512;26.104;2022-07-06T12:16:18;18.45;;;11.45;;
46158;SDS011;31888;44.512;26.104;2022-07-06T12:18:35;23.05;;;11.50;;
46158;SDS011;31888;44.512;26.104;2022-07-06T12:20:40;16.85;;;12.30;;
46158;SDS011;31888;44.512;26.104;2022-07-06T12:22:45;20.83;;;12.60;;
46158;SDS011;31888;44.512;26.104;2022-07-06T12:24:50;19.08;;;12.50;;
46158;SDS011;31888;44.512;26.104;2022-07-06T12:26:55;13.20;;;11.40;;
46158;SDS011;31888;44.512;26.104;2022-07-06T12:29:00;21.15;;;12.27;;